Kirsten H — WY7979 — position and weather

sailwx.info

Track history (hours):
 
Tides and Currents Weather Stations Pressure Air Temp Water Temp Dewpoint Dewpoint Depression Visibility Wind Speed Wind Dir Waves Ship Positions

Kirsten H

Owner: BOYER TOWING, KETCHIKAN, AK. More information available from US FCC via Universal Licensing System and Coast Guard Vessel Documentation Center.

Last reported at 2015-Jan-27 07:09 UTC. Time now 2015-Jul-07 06:46 UTC.
Position N 54°40' W 130°35'.
Warning: this ship's position is months out of date.

Length 22 m; draft 3.7 m.

Type: Tow > 200 m length. MMSI: 366623050.

Date/timePositionNaut miles runAvg speedWind from/ knotsBaromVisibWave heightAir tempDewpointWater temp
2015-Jan-27 07:09N 54°40' W 130°35'4 7.4
2015-Jan-27 06:32N 54°37' W 130°29'7 7.0
2015-Jan-27 05:33N 54°30' W 130°31'7 6.8
2015-Jan-27 04:33N 54°24' W 130°33'7 7.0
2015-Jan-27 03:33N 54°17' W 130°32'8 8.0
2015-Jan-27 02:33N 54°10' W 130°25'186 6.6
2015-Jan-25 22:26N 51°29' W 127°51'14 7.3
2015-Jan-25 20:27N 51°15' W 127°55'6 7.0
2015-Jan-25 19:33N 51°09' W 127°51'8 7.6
2015-Jan-25 18:33N 51°04' W 127°42'8 7.8
2015-Jan-25 17:33N 50°59' W 127°33'9 8.6
2015-Jan-25 16:33N 50°54' W 127°22'8 8.3
2015-Jan-25 15:33N 50°50' W 127°10'8 7.8
2015-Jan-25 14:28N 50°44' W 126°60'10 7.2
2015-Jan-25 13:07N 50°38' W 126°48'6 6.1
2015-Jan-25 12:07N 50°34' W 126°41'3 5.2
2015-Jan-25 11:31N 50°31' W 126°38'83 6.9
2015-Jan-24 23:29N 49°47' W 124°49'8 6.3
2015-Jan-24 22:12N 49°42' W 124°39'7 6.6
2015-Jan-24 21:06N 49°37' W 124°30'6 6.1
2015-Jan-24 20:06N 49°34' W 124°22'4 6.5
2015-Jan-24 19:28N 49°32' W 124°16'5 5.8
2015-Jan-24 18:33N 49°29' W 124°10'8 8.1
2015-Jan-24 17:33N 49°25' W 123°60'9 8.1
2015-Jan-24 16:28N 49°19' W 123°49'7 7.7
2015-Jan-24 15:32N 49°15' W 123°40'8 8.3
2015-Jan-24 14:33N 49°10' W 123°30'8 7.6
2015-Jan-24 13:33N 49°05' W 123°21'8 8.4
2015-Jan-24 12:33N 48°59' W 123°12'8 8.1
2015-Jan-24 11:31N 48°54' W 123°02'7 7.2
2015-Jan-24 10:32N 48°49' W 122°54'7 6.7
2015-Jan-24 09:33N 48°45' W 122°46'6 6.0
2015-Jan-24 08:33N 48°40' W 122°42'5 4.6
2015-Jan-24 07:33N 48°35' W 122°45'4 3.9
2015-Jan-24 06:33N 48°32' W 122°44'5 4.6
2015-Jan-24 05:33N 48°27' W 122°44'9 6.8
2015-Jan-24 04:09N 48°18' W 122°46'18 6.9
2015-Jan-24 01:31N 48°01' W 122°36'6 6.1
2015-Jan-24 00:33N 47°56' W 122°31'7 7.1
2015-Jan-23 23:33N 47°50' W 122°27'8 7.8
2015-Jan-23 22:33N 47°42' W 122°27'7 6.8
2015-Jan-23 21:33N 47°36' W 122°22'4 3.9
2015-Jan-23 20:33N 47°32' W 122°20'0 0.0
2015-Jan-23 19:33N 47°32' W 122°20'0 0.1
2015-Jan-23 18:34N 47°32' W 122°20'0 0.0
2015-Jan-23 17:34N 47°32' W 122°20'0 0.0
2015-Jan-23 16:33N 47°32' W 122°20'0 0.0
2015-Jan-22 00:32N 47°32' W 122°20'3 3.3
2015-Jan-21 23:33N 47°35' W 122°21'0 0.0
2015-Jan-21 22:50N 47°35' W 122°21'0 0.0
2015-Jan-21 22:46N 47°35' W 122°21'1 1.8
2015-Jan-21 22:22N 47°35' W 122°22'  
Track history (hours):
 
Tides and Currents Weather Stations Pressure Air Temp Water Temp Dewpoint Dewpoint Depression Visibility Wind Speed Wind Dir Waves Ship Positions

Kirsten H

Owner: BOYER TOWING, KETCHIKAN, AK. More information available from US FCC via Universal Licensing System and Coast Guard Vessel Documentation Center.

Last reported at 2015-Jan-27 07:09 UTC. Time now 2015-Jul-07 06:46 UTC.
Position N 54°40' W 130°35'.
Warning: this ship's position is months out of date.

Length 22 m; draft 3.7 m.

Type: Tow > 200 m length. MMSI: 366623050.

Date/timePositionNaut miles runAvg speedWind from/ knotsBaromVisibWave heightAir tempDewpointWater temp
2015-Jan-27 07:09N 54°40' W 130°35'4 7.4
2015-Jan-27 06:32N 54°37' W 130°29'7 7.0
2015-Jan-27 05:33N 54°30' W 130°31'7 6.8
2015-Jan-27 04:33N 54°24' W 130°33'7 7.0
2015-Jan-27 03:33N 54°17' W 130°32'8 8.0
2015-Jan-27 02:33N 54°10' W 130°25'186 6.6
2015-Jan-25 22:26N 51°29' W 127°51'14 7.3
2015-Jan-25 20:27N 51°15' W 127°55'6 7.0
2015-Jan-25 19:33N 51°09' W 127°51'8 7.6
2015-Jan-25 18:33N 51°04' W 127°42'8 7.8
2015-Jan-25 17:33N 50°59' W 127°33'9 8.6
2015-Jan-25 16:33N 50°54' W 127°22'8 8.3
2015-Jan-25 15:33N 50°50' W 127°10'8 7.8
2015-Jan-25 14:28N 50°44' W 126°60'10 7.2
2015-Jan-25 13:07N 50°38' W 126°48'6 6.1
2015-Jan-25 12:07N 50°34' W 126°41'3 5.2
2015-Jan-25 11:31N 50°31' W 126°38'83 6.9
2015-Jan-24 23:29N 49°47' W 124°49'8 6.3
2015-Jan-24 22:12N 49°42' W 124°39'7 6.6
2015-Jan-24 21:06N 49°37' W 124°30'6 6.1
2015-Jan-24 20:06N 49°34' W 124°22'4 6.5
2015-Jan-24 19:28N 49°32' W 124°16'5 5.8
2015-Jan-24 18:33N 49°29' W 124°10'8 8.1
2015-Jan-24 17:33N 49°25' W 123°60'9 8.1
2015-Jan-24 16:28N 49°19' W 123°49'7 7.7
2015-Jan-24 15:32N 49°15' W 123°40'8 8.3
2015-Jan-24 14:33N 49°10' W 123°30'8 7.6
2015-Jan-24 13:33N 49°05' W 123°21'8 8.4
2015-Jan-24 12:33N 48°59' W 123°12'8 8.1
2015-Jan-24 11:31N 48°54' W 123°02'7 7.2
2015-Jan-24 10:32N 48°49' W 122°54'7 6.7
2015-Jan-24 09:33N 48°45' W 122°46'6 6.0
2015-Jan-24 08:33N 48°40' W 122°42'5 4.6
2015-Jan-24 07:33N 48°35' W 122°45'4 3.9
2015-Jan-24 06:33N 48°32' W 122°44'5 4.6
2015-Jan-24 05:33N 48°27' W 122°44'9 6.8
2015-Jan-24 04:09N 48°18' W 122°46'18 6.9
2015-Jan-24 01:31N 48°01' W 122°36'6 6.1
2015-Jan-24 00:33N 47°56' W 122°31'7 7.1
2015-Jan-23 23:33N 47°50' W 122°27'8 7.8
2015-Jan-23 22:33N 47°42' W 122°27'7 6.8
2015-Jan-23 21:33N 47°36' W 122°22'4 3.9
2015-Jan-23 20:33N 47°32' W 122°20'0 0.0
2015-Jan-23 19:33N 47°32' W 122°20'0 0.1
2015-Jan-23 18:34N 47°32' W 122°20'0 0.0
2015-Jan-23 17:34N 47°32' W 122°20'0 0.0
2015-Jan-23 16:33N 47°32' W 122°20'0 0.0
2015-Jan-22 00:32N 47°32' W 122°20'3 3.3
2015-Jan-21 23:33N 47°35' W 122°21'0 0.0
2015-Jan-21 22:50N 47°35' W 122°21'0 0.0
2015-Jan-21 22:46N 47°35' W 122°21'1 1.8
2015-Jan-21 22:22N 47°35' W 122°22'  

Dump ship's entire track history